createdAt,value
2023-05-04T00:00:07.762Z,3.60
2023-05-04T00:02:35.514Z,3.55
2023-05-04T00:05:06.213Z,4.07
2023-05-04T00:07:33.857Z,4.07
2023-05-04T00:10:01.547Z,3.92
2023-05-04T00:12:29.109Z,3.85
2023-05-04T00:14:56.725Z,3.78
2023-05-04T00:17:24.269Z,3.90
2023-05-04T00:19:51.718Z,3.72
2023-05-04T00:22:19.269Z,3.90
2023-05-04T00:24:46.734Z,3.95
2023-05-04T00:27:14.213Z,4.22
2023-05-04T00:29:41.757Z,3.53
2023-05-04T00:32:09.752Z,4.00
2023-05-04T00:34:37.523Z,3.67
2023-05-04T00:37:06.823Z,3.55
2023-05-04T00:39:35.381Z,3.97
2023-05-04T00:42:03.348Z,4.20
2023-05-04T00:44:30.934Z,3.95
2023-05-04T00:46:58.634Z,3.70
2023-05-04T00:49:26.838Z,4.07
2023-05-04T00:51:57.099Z,4.05
2023-05-04T00:54:26.002Z,4.15
2023-05-04T00:56:53.915Z,3.97
2023-05-04T00:59:21.855Z,4.32
2023-05-04T01:01:49.364Z,4.93
2023-05-04T01:04:17.112Z,5.43
2023-05-04T01:07:16.980Z,5.57
2023-05-04T01:10:00.949Z,5.88
2023-05-04T01:12:39.229Z,5.93
2023-05-04T01:15:09.771Z,5.65
2023-05-04T01:17:37.710Z,5.35
2023-05-04T01:20:06.443Z,5.13
2023-05-04T01:22:34.696Z,5.00
2023-05-04T01:25:02.470Z,4.75
2023-05-04T01:28:10.438Z,6.20
2023-05-04T01:30:44.118Z,5.43
2023-05-04T01:33:12.539Z,5.47
2023-05-04T01:35:40.433Z,5.63
2023-05-04T01:38:08.194Z,5.40
2023-05-04T01:40:35.691Z,5.35
2023-05-04T01:43:03.250Z,6.28
2023-05-04T01:45:30.792Z,5.97
2023-05-04T01:47:58.458Z,5.50
2023-05-04T01:50:26.330Z,5.63
2023-05-04T01:52:53.866Z,5.53
2023-05-04T01:55:21.396Z,5.30
2023-05-04T01:57:48.920Z,6.45
2023-05-04T02:00:16.877Z,6.20
2023-05-04T02:02:45.374Z,6.13
2023-05-04T02:05:17.597Z,6.47
2023-05-04T02:07:46.174Z,6.07
2023-05-04T02:10:13.729Z,5.43
2023-05-04T02:12:43.244Z,5.35
2023-05-04T02:15:11.215Z,5.20
2023-05-04T02:17:38.858Z,6.40
2023-05-04T02:20:07.421Z,5.35
2023-05-04T02:22:36.092Z,5.35
2023-05-04T02:25:03.660Z,5.55
2023-05-04T02:27:31.370Z,5.55
2023-05-04T02:29:59.458Z,5.20
2023-05-04T02:32:27.556Z,5.18
2023-05-04T02:34:55.108Z,5.63
2023-05-04T02:37:22.730Z,5.80
2023-05-04T02:39:50.176Z,4.93
2023-05-04T02:42:17.771Z,4.78
2023-05-04T02:44:45.267Z,4.68
2023-05-04T02:47:12.792Z,4.20
2023-05-04T02:49:40.359Z,4.30
2023-05-04T02:52:08.055Z,4.80
2023-05-04T02:54:35.891Z,4.30
2023-05-04T02:57:03.443Z,4.03
2023-05-04T02:59:31.000Z,4.20
2023-05-04T03:01:58.590Z,3.88
2023-05-04T03:04:26.207Z,3.47
2023-05-04T03:06:53.695Z,3.53
2023-05-04T03:09:21.117Z,3.58
2023-05-04T03:11:48.615Z,3.67
2023-05-04T03:14:16.488Z,3.88
2023-05-04T03:16:46.105Z,3.47
2023-05-04T03:19:13.571Z,4.25
2023-05-04T03:21:41.168Z,3.65
2023-05-04T03:24:08.694Z,4.00
2023-05-04T03:26:36.142Z,3.80
2023-05-04T03:29:03.663Z,3.53
2023-05-04T03:31:31.777Z,4.15
2023-05-04T03:33:59.870Z,4.13
2023-05-04T03:36:27.761Z,4.43
2023-05-04T03:38:56.113Z,4.10
2023-05-04T03:41:23.884Z,3.85
2023-05-04T03:43:51.380Z,4.00
2023-05-04T03:46:19.859Z,3.65
2023-05-04T03:48:47.384Z,4.03
2023-05-04T03:51:17.699Z,4.03
2023-05-04T03:53:46.238Z,3.78
2023-05-04T03:56:16.714Z,3.60
2023-05-04T03:58:44.342Z,3.97
2023-05-04T04:01:13.956Z,3.78
2023-05-04T04:03:41.459Z,3.30
2023-05-04T04:06:09.888Z,3.55
2023-05-04T04:08:38.386Z,3.70
2023-05-04T04:11:06.098Z,3.33
2023-05-04T04:13:33.593Z,3.63
2023-05-04T04:16:01.222Z,3.67
2023-05-04T04:18:28.725Z,3.08
2023-05-04T04:20:56.322Z,3.60
2023-05-04T04:23:24.593Z,3.35
2023-05-04T04:25:54.029Z,3.45
2023-05-04T04:28:21.660Z,3.60
2023-05-04T04:30:49.252Z,3.20
2023-05-04T04:33:17.142Z,3.17
2023-05-04T04:35:44.664Z,3.38
2023-05-04T04:38:12.090Z,3.20
2023-05-04T04:40:39.593Z,3.08
2023-05-04T04:43:07.119Z,3.15
2023-05-04T04:45:35.814Z,3.65
2023-05-04T04:48:04.077Z,2.78
2023-05-04T04:50:32.384Z,3.35
2023-05-04T04:53:00.174Z,3.72
2023-05-04T04:55:27.708Z,3.38
2023-05-04T04:57:55.781Z,3.15
2023-05-04T05:00:24.344Z,3.33
2023-05-04T05:02:51.869Z,3.40
2023-05-04T05:05:19.340Z,2.72
2023-05-04T05:07:46.971Z,3.47
2023-05-04T05:10:14.482Z,3.20
2023-05-04T05:12:42.050Z,3.15
2023-05-04T05:15:09.880Z,3.38
2023-05-04T05:17:37.973Z,3.92
2023-05-04T05:20:12.752Z,3.78
2023-05-04T05:22:40.954Z,3.05
2023-05-04T05:25:08.864Z,3.42
2023-05-04T05:27:37.002Z,3.78
2023-05-04T05:30:06.058Z,3.78
2023-05-04T05:32:34.149Z,4.10
2023-05-04T05:35:01.867Z,3.83
2023-05-04T05:37:29.285Z,3.67
2023-05-04T05:39:57.012Z,3.38
2023-05-04T05:42:24.588Z,3.50
2023-05-04T05:44:52.019Z,3.58
2023-05-04T05:47:19.730Z,4.20
2023-05-04T05:49:47.167Z,3.40
2023-05-04T05:52:14.923Z,3.58
2023-05-04T05:54:42.503Z,3.75
2023-05-04T05:57:10.038Z,3.53
2023-05-04T05:59:37.544Z,3.58
2023-05-04T06:02:06.063Z,3.65
2023-05-04T06:04:33.601Z,3.85
2023-05-04T06:07:01.123Z,3.67
2023-05-04T06:09:28.622Z,3.70
2023-05-04T06:11:56.168Z,4.03
2023-05-04T06:14:23.602Z,4.32
2023-05-04T06:16:51.314Z,3.47
2023-05-04T06:19:18.741Z,3.40
2023-05-04T06:21:49.572Z,4.53
2023-05-04T06:24:17.079Z,3.53
2023-05-04T06:26:44.514Z,3.90
2023-05-04T06:29:12.161Z,3.55
2023-05-04T06:31:39.698Z,4.03
2023-05-04T06:34:07.242Z,3.92
2023-05-04T06:36:34.698Z,4.07
2023-05-04T06:39:02.127Z,4.78
2023-05-04T06:41:29.730Z,3.80
2023-05-04T06:43:58.854Z,4.38
2023-05-04T06:46:27.271Z,4.70
2023-05-04T06:48:54.921Z,4.63
2023-05-04T06:51:22.488Z,5.75
2023-05-04T06:53:49.848Z,4.53
2023-05-04T06:56:17.809Z,4.95
2023-05-04T06:58:45.250Z,3.90
2023-05-04T07:01:12.787Z,4.20
2023-05-04T07:03:40.279Z,3.60
2023-05-04T07:06:07.964Z,3.85
2023-05-04T07:08:35.518Z,3.85
2023-05-04T07:11:03.084Z,3.92
2023-05-04T07:13:30.636Z,3.63
2023-05-04T07:15:58.136Z,4.28
2023-05-04T07:18:25.545Z,3.30
2023-05-04T07:20:54.312Z,3.17
2023-05-04T07:23:26.276Z,2.47
2023-05-04T07:25:53.845Z,2.90
2023-05-04T07:28:21.338Z,2.85
2023-05-04T07:30:48.729Z,2.53
2023-05-04T07:33:16.327Z,2.90
2023-05-04T07:35:43.881Z,2.78
2023-05-04T07:38:11.364Z,3.28
2023-05-04T07:40:38.886Z,2.83
2023-05-04T07:43:06.628Z,2.75
2023-05-04T07:45:34.085Z,2.58
2023-05-04T07:48:01.535Z,2.55
2023-05-04T07:50:29.430Z,2.45
2023-05-04T07:52:56.877Z,2.30
2023-05-04T07:55:25.319Z,2.90
2023-05-04T07:57:52.725Z,3.22
2023-05-04T08:00:20.885Z,3.03
2023-05-04T08:02:48.663Z,2.85
2023-05-04T08:05:16.406Z,3.25
2023-05-04T08:07:44.207Z,3.50
2023-05-04T08:10:11.632Z,2.70
2023-05-04T08:12:41.364Z,3.28
2023-05-04T08:15:10.675Z,2.70
2023-05-04T08:17:40.680Z,3.58
2023-05-04T08:24:14.771Z,3.22
2023-05-04T08:26:47.324Z,3.22
2023-05-04T08:29:19.986Z,3.05
2023-05-04T08:31:47.456Z,3.13
2023-05-04T08:34:14.981Z,3.10
2023-05-04T08:36:42.452Z,2.92
2023-05-04T08:39:12.111Z,2.97
2023-05-04T08:41:43.562Z,3.13
2023-05-04T08:44:11.748Z,2.92
2023-05-04T08:46:40.492Z,2.70
2023-05-04T08:49:08.435Z,2.80
2023-05-04T08:51:37.301Z,3.65
2023-05-04T08:54:10.546Z,3.20
2023-05-04T08:56:40.108Z,3.05
2023-05-04T08:59:09.828Z,2.80
2023-05-04T09:01:38.697Z,3.05
2023-05-04T09:04:06.366Z,3.00
2023-05-04T09:06:34.013Z,3.33
2023-05-04T09:09:01.557Z,3.13
2023-05-04T09:11:29.112Z,3.88
2023-05-04T09:13:56.884Z,3.17
2023-05-04T09:16:35.098Z,3.22
2023-05-04T09:19:04.642Z,3.22
2023-05-04T09:21:32.595Z,3.95
2023-05-04T09:24:00.332Z,3.22
2023-05-04T09:26:31.940Z,3.08
2023-05-04T09:29:13.760Z,3.20
2023-05-04T09:31:48.202Z,3.30
2023-05-04T09:34:15.986Z,3.60
2023-05-04T09:36:43.472Z,3.70
2023-05-04T09:39:15.793Z,3.15
2023-05-04T09:41:43.688Z,3.05
2023-05-04T09:44:29.488Z,2.88
2023-05-04T09:47:00.658Z,3.35
2023-05-04T09:49:38.040Z,4.47
2023-05-04T09:52:07.282Z,3.63
2023-05-04T09:54:36.422Z,3.40
2023-05-04T09:57:16.144Z,3.90
2023-05-04T09:59:43.740Z,3.13
2023-05-04T10:02:22.507Z,3.08
2023-05-04T10:04:51.946Z,3.22
2023-05-04T10:07:21.000Z,3.65
2023-05-04T10:09:49.117Z,3.33
2023-05-04T10:12:16.662Z,3.20
2023-05-04T10:14:46.973Z,3.50
2023-05-04T10:17:53.661Z,2.67
2023-05-04T10:20:33.158Z,2.88
2023-05-04T10:23:37.798Z,2.88
2023-05-04T10:26:24.228Z,2.90
2023-05-04T10:29:13.827Z,3.40
2023-05-04T10:31:42.995Z,3.75
2023-05-04T10:34:11.492Z,3.88
2023-05-04T10:36:40.839Z,4.03
2023-05-04T10:39:25.715Z,3.03
2023-05-04T10:42:08.610Z,3.70
2023-05-04T10:44:48.958Z,3.70
2023-05-04T10:47:28.192Z,3.13
2023-05-04T10:50:04.212Z,3.30
2023-05-04T10:52:52.201Z,3.58
2023-05-04T10:55:21.763Z,3.70
2023-05-04T10:57:54.263Z,3.85
2023-05-04T11:00:22.860Z,4.10
2023-05-04T11:02:50.494Z,3.38
2023-05-04T11:05:20.353Z,3.25
2023-05-04T11:07:50.961Z,2.72
2023-05-04T11:10:26.071Z,3.10
2023-05-04T11:13:02.704Z,3.85
2023-05-04T11:15:32.062Z,3.00
2023-05-04T11:17:59.640Z,2.95
2023-05-04T11:20:27.758Z,2.65
2023-05-04T11:22:55.187Z,3.15
2023-05-04T11:25:29.715Z,3.45
2023-05-04T11:28:01.587Z,3.38
2023-05-04T11:30:35.924Z,3.88
2023-05-04T11:33:11.878Z,2.97
2023-05-04T11:35:42.279Z,3.45
2023-05-04T11:38:10.529Z,3.42
2023-05-04T11:40:41.189Z,3.13
2023-05-04T11:43:11.358Z,2.83
2023-05-04T11:45:41.507Z,3.13
2023-05-04T11:48:09.686Z,3.40
2023-05-04T11:50:37.841Z,3.25
2023-05-04T11:53:09.397Z,2.78
2023-05-04T11:55:38.250Z,3.35
2023-05-04T11:58:07.739Z,2.47
2023-05-04T12:00:39.943Z,2.88
2023-05-04T12:03:09.808Z,2.75
2023-05-04T12:05:37.743Z,2.53
2023-05-04T12:08:07.385Z,2.17
2023-05-04T12:10:35.407Z,2.25
2023-05-04T12:13:02.980Z,3.03
2023-05-04T12:15:33.231Z,2.85
2023-05-04T12:18:02.683Z,2.50
2023-05-04T12:20:31.170Z,3.00
2023-05-04T12:23:05.518Z,2.70
2023-05-04T12:25:33.399Z,2.30
2023-05-04T12:28:01.254Z,2.33
2023-05-04T12:30:28.732Z,2.45
2023-05-04T12:32:56.508Z,2.30
2023-05-04T12:35:24.215Z,2.80
2023-05-04T12:37:51.611Z,1.98
2023-05-04T12:40:28.397Z,2.40
2023-05-04T12:42:56.409Z,2.30
2023-05-04T12:45:24.128Z,2.42
2023-05-04T12:47:51.698Z,2.88
2023-05-04T12:50:19.167Z,2.50
2023-05-04T12:52:46.655Z,2.00
2023-05-04T12:55:14.570Z,2.40
2023-05-04T12:57:43.494Z,2.45
2023-05-04T13:00:12.135Z,2.30
2023-05-04T13:02:39.570Z,2.38
2023-05-04T13:05:08.613Z,2.50
2023-05-04T13:07:36.454Z,2.40
2023-05-04T13:10:04.258Z,2.25
2023-05-04T13:12:31.941Z,2.50
2023-05-04T13:14:59.720Z,2.15
2023-05-04T13:17:27.854Z,2.10
2023-05-04T13:19:55.546Z,2.58
2023-05-04T13:22:23.080Z,2.33
2023-05-04T13:24:50.795Z,2.00
2023-05-04T13:27:18.210Z,2.40
2023-05-04T13:29:45.688Z,1.90
2023-05-04T13:32:13.208Z,1.90
2023-05-04T13:34:40.661Z,2.00
2023-05-04T13:37:08.107Z,2.13
2023-05-04T13:39:42.165Z,1.60
2023-05-04T13:42:09.713Z,2.03
2023-05-04T13:44:37.201Z,2.05
2023-05-04T13:47:04.777Z,2.30
2023-05-04T13:49:32.313Z,2.05
2023-05-04T13:51:59.816Z,1.85
2023-05-04T13:54:27.765Z,2.00
2023-05-04T13:56:55.183Z,2.10
2023-05-04T13:59:22.709Z,1.88
2023-05-04T14:01:50.816Z,2.10
2023-05-04T14:04:18.853Z,1.77
2023-05-04T14:06:50.397Z,1.60
2023-05-04T14:09:19.239Z,2.10
2023-05-04T14:11:47.369Z,1.92
2023-05-04T14:14:14.964Z,1.70
2023-05-04T14:16:42.647Z,1.60
2023-05-04T14:19:10.166Z,1.65
2023-05-04T14:21:37.596Z,1.80
2023-05-04T14:24:05.087Z,2.50
2023-05-04T14:26:33.030Z,1.88
2023-05-04T14:29:00.572Z,1.50
2023-05-04T14:31:28.172Z,2.22
2023-05-04T14:33:56.987Z,2.10
2023-05-04T14:36:24.795Z,1.70
2023-05-04T14:38:52.308Z,2.10
2023-05-04T14:41:19.885Z,1.83
2023-05-04T14:43:47.837Z,2.40
2023-05-04T14:46:15.338Z,1.80
2023-05-04T14:48:42.856Z,2.17
2023-05-04T14:51:12.680Z,1.70
2023-05-04T14:53:41.126Z,1.70
2023-05-04T14:56:08.572Z,2.10
2023-05-04T14:58:36.473Z,1.85
2023-05-04T15:01:04.103Z,2.00
2023-05-04T15:03:31.675Z,2.10
2023-05-04T15:05:59.136Z,2.00
2023-05-04T15:08:26.996Z,1.98
2023-05-04T15:10:58.145Z,2.13
2023-05-04T15:13:26.459Z,2.13
2023-05-04T15:15:54.599Z,1.77
2023-05-04T15:18:24.113Z,2.15
2023-05-04T15:20:51.790Z,1.85
2023-05-04T15:23:19.214Z,2.15
2023-05-04T15:25:46.911Z,2.00
2023-05-04T15:28:14.353Z,1.95
2023-05-04T15:30:42.195Z,1.63
2023-05-04T15:33:09.830Z,1.83
2023-05-04T15:35:38.701Z,2.30
2023-05-04T15:38:06.136Z,2.00
2023-05-04T15:40:33.607Z,2.03
2023-05-04T15:43:01.093Z,1.80
2023-05-04T15:45:28.608Z,2.08
2023-05-04T15:47:58.509Z,2.17
2023-05-04T15:50:26.862Z,1.80
2023-05-04T15:52:54.416Z,2.10
2023-05-04T15:55:25.410Z,2.20
2023-05-04T15:57:54.194Z,1.67
2023-05-04T16:00:22.398Z,1.85
2023-05-04T16:02:50.028Z,1.73
2023-05-04T16:05:17.546Z,1.90
2023-05-04T16:07:44.982Z,1.60
2023-05-04T16:10:12.608Z,2.25
2023-05-04T16:12:40.142Z,1.88
2023-05-04T16:15:07.846Z,2.08
2023-05-04T16:17:35.702Z,1.70
2023-05-04T16:20:05.136Z,1.80
2023-05-04T16:22:33.343Z,1.90
2023-05-04T16:25:02.233Z,1.65
2023-05-04T16:27:29.860Z,1.75
2023-05-04T16:29:57.308Z,1.95
2023-05-04T16:32:24.882Z,1.73
2023-05-04T16:34:52.385Z,1.90
2023-05-04T16:37:19.844Z,1.90
2023-05-04T16:39:47.323Z,1.85
2023-05-04T16:42:14.768Z,1.60
2023-05-04T16:44:42.225Z,1.83
2023-05-04T16:47:09.684Z,1.70
2023-05-04T16:49:37.234Z,2.03
2023-05-04T16:52:05.719Z,1.80
2023-05-04T16:54:34.318Z,1.20
2023-05-04T16:57:02.255Z,1.50
2023-05-04T16:59:29.742Z,1.55
2023-05-04T17:01:59.291Z,1.70
2023-05-04T17:04:29.103Z,1.35
2023-05-04T17:06:56.836Z,1.50
2023-05-04T17:09:24.291Z,1.70
2023-05-04T17:11:51.770Z,1.60
2023-05-04T17:14:19.412Z,1.40
2023-05-04T17:16:47.406Z,1.67
2023-05-04T17:19:14.785Z,1.70
2023-05-04T17:21:42.298Z,1.40
2023-05-04T17:24:09.749Z,1.67
2023-05-04T17:26:37.232Z,1.83
2023-05-04T17:29:04.822Z,1.98
2023-05-04T17:31:32.231Z,1.77
2023-05-04T17:33:59.774Z,1.88
2023-05-04T17:36:28.167Z,1.52
2023-05-04T17:38:55.805Z,1.75
2023-05-04T17:41:24.930Z,1.77
2023-05-04T17:43:54.189Z,1.63
2023-05-04T17:46:21.814Z,2.40
2023-05-04T17:48:50.168Z,1.90
2023-05-04T17:51:17.615Z,1.60
2023-05-04T17:53:45.939Z,1.92
2023-05-04T17:56:13.410Z,2.00
2023-05-04T17:58:40.922Z,1.80
2023-05-04T18:01:08.397Z,1.70
2023-05-04T18:03:36.070Z,2.00
2023-05-04T18:06:03.804Z,2.10
2023-05-04T18:08:31.284Z,2.03
2023-05-04T18:10:58.756Z,1.83
2023-05-04T18:13:26.855Z,1.83
2023-05-04T18:15:54.396Z,2.10
2023-05-04T18:18:21.914Z,2.00
2023-05-04T18:20:49.286Z,1.90
2023-05-04T18:23:16.790Z,1.75
2023-05-04T18:25:44.273Z,1.55
2023-05-04T18:28:11.775Z,1.80
2023-05-04T18:30:40.088Z,2.17
2023-05-04T18:33:07.591Z,1.60
2023-05-04T18:35:35.112Z,2.00
2023-05-04T18:38:02.530Z,1.77
2023-05-04T18:40:31.734Z,1.88
2023-05-04T18:42:59.218Z,2.83
2023-05-04T18:45:26.860Z,2.20
2023-05-04T18:47:54.309Z,2.33
2023-05-04T18:50:21.847Z,2.20
2023-05-04T18:52:49.279Z,3.03
2023-05-04T18:55:16.877Z,3.10
2023-05-04T18:57:44.510Z,2.25
2023-05-04T19:00:14.033Z,2.33
2023-05-04T19:02:41.631Z,2.08
2023-05-04T19:05:10.769Z,3.45
2023-05-04T19:07:39.217Z,2.67
2023-05-04T19:10:07.816Z,2.45
2023-05-04T19:12:35.589Z,2.30
2023-05-04T19:15:03.273Z,2.13
2023-05-04T19:17:32.779Z,1.95
2023-05-04T19:20:00.475Z,2.00
2023-05-04T19:22:28.013Z,1.95
2023-05-04T19:24:55.677Z,2.33
2023-05-04T19:27:23.140Z,2.10
2023-05-04T19:29:50.904Z,2.13
2023-05-04T19:32:24.255Z,2.40
2023-05-04T19:34:52.547Z,2.50
2023-05-04T19:37:20.425Z,2.25
2023-05-04T19:39:47.929Z,2.67
2023-05-04T19:42:16.100Z,2.55
2023-05-04T19:44:43.538Z,2.10
2023-05-04T19:47:11.103Z,2.15
2023-05-04T19:49:38.987Z,2.70
2023-05-04T19:52:07.139Z,2.60
2023-05-04T19:54:34.917Z,2.25
2023-05-04T19:57:02.447Z,2.13
2023-05-04T19:59:29.816Z,2.72
2023-05-04T20:01:59.062Z,3.00
2023-05-04T20:04:26.543Z,2.65
2023-05-04T20:06:54.162Z,2.58
2023-05-04T20:09:21.614Z,2.55
2023-05-04T20:11:49.129Z,2.67
2023-05-04T20:14:16.574Z,3.00
2023-05-04T20:16:44.247Z,3.25
2023-05-04T20:19:11.695Z,2.72
2023-05-04T20:21:39.217Z,2.88
2023-05-04T20:24:07.306Z,3.28
2023-05-04T20:26:34.893Z,2.97
2023-05-04T20:29:02.278Z,2.92
2023-05-04T20:31:30.471Z,2.85
2023-05-04T20:33:57.987Z,2.55
2023-05-04T20:36:25.395Z,3.00
2023-05-04T20:38:53.938Z,3.08
2023-05-04T20:41:25.568Z,3.03
2023-05-04T20:43:53.005Z,3.13
2023-05-04T20:46:20.485Z,3.15
2023-05-04T20:48:47.892Z,2.92
2023-05-04T20:51:15.728Z,3.17
2023-05-04T20:53:43.250Z,3.45
2023-05-04T20:56:10.841Z,3.55
2023-05-04T20:58:38.368Z,3.40
2023-05-04T21:01:06.378Z,3.38
2023-05-04T21:03:34.327Z,3.10
2023-05-04T21:06:02.409Z,3.40
2023-05-04T21:08:29.870Z,4.05
2023-05-04T21:10:57.336Z,3.47
2023-05-04T21:13:24.785Z,3.28
2023-05-04T21:15:52.371Z,4.07
2023-05-04T21:18:19.912Z,3.25
2023-05-04T21:20:47.531Z,3.90
2023-05-04T21:23:14.963Z,3.60
2023-05-04T21:25:42.511Z,3.50
2023-05-04T21:28:09.972Z,3.38
2023-05-04T21:30:41.270Z,3.35
2023-05-04T21:33:08.683Z,3.03
2023-05-04T21:35:36.207Z,3.63
2023-05-04T21:38:03.692Z,3.53
2023-05-04T21:40:31.758Z,3.28
2023-05-04T21:42:59.827Z,3.60
2023-05-04T21:45:27.391Z,3.47
2023-05-04T21:47:54.859Z,3.85
2023-05-04T21:50:22.387Z,3.30
2023-05-04T21:52:50.093Z,3.88
2023-05-04T21:55:17.759Z,3.45
2023-05-04T21:57:45.324Z,3.55
2023-05-04T22:00:17.720Z,2.97
2023-05-04T22:02:45.305Z,3.33
2023-05-04T22:05:12.758Z,3.88
2023-05-04T22:07:40.219Z,3.30
2023-05-04T22:10:08.439Z,3.65
2023-05-04T22:12:36.187Z,3.42
2023-05-04T22:15:03.731Z,3.20
2023-05-04T22:17:31.392Z,3.47
2023-05-04T22:19:58.834Z,4.13
2023-05-04T22:22:26.279Z,2.88
2023-05-04T22:24:53.683Z,3.53
2023-05-04T22:27:21.340Z,3.60
2023-05-04T22:29:48.719Z,3.70
2023-05-04T22:32:16.414Z,3.33
2023-05-04T22:34:43.882Z,3.03
2023-05-04T22:37:12.179Z,3.75
2023-05-04T22:39:39.549Z,3.80
2023-05-04T22:42:07.138Z,3.17
2023-05-04T22:44:34.744Z,3.40
2023-05-04T22:47:02.337Z,4.35
2023-05-04T22:49:29.990Z,3.22
2023-05-04T22:51:57.796Z,3.45
2023-05-04T22:54:25.859Z,2.92
2023-05-04T22:56:53.355Z,3.40
2023-05-04T22:59:20.901Z,3.20
2023-05-04T23:01:48.485Z,3.47
2023-05-04T23:04:16.590Z,3.47
2023-05-04T23:06:44.119Z,3.08
2023-05-04T23:09:11.999Z,3.28
2023-05-04T23:11:40.655Z,3.00
2023-05-04T23:14:08.213Z,3.25
2023-05-04T23:16:35.856Z,3.38
2023-05-04T23:19:03.653Z,3.20
2023-05-04T23:21:31.618Z,3.22
2023-05-04T23:23:59.059Z,3.10
2023-05-04T23:26:26.615Z,3.30
2023-05-04T23:28:54.056Z,3.20
2023-05-04T23:31:21.651Z,2.85
2023-05-04T23:33:49.077Z,3.08
2023-05-04T23:36:16.665Z,3.40
2023-05-04T23:38:44.154Z,4.03
2023-05-04T23:41:12.631Z,3.03
2023-05-04T23:43:40.081Z,3.25
2023-05-04T23:46:07.653Z,2.80
2023-05-04T23:48:35.063Z,2.90
2023-05-04T23:51:04.709Z,4.05
2023-05-04T23:53:33.829Z,3.33
2023-05-04T23:56:04.079Z,3.00
2023-05-04T23:58:33.409Z,3.60
